Time;durP1;ratioP1;P1;durP2;ratioP2;P2;SDS_P1;SDS_P2;PMS_P1;PMS_P2;Temp;Humidity;BMP_temperature;BMP_pressure;BME280_temperature;BME280_humidity;BME280_pressure;Samples;Min_cycle;Max_cycle;Signal;HPM_P1;HPM_P2
2021/03/11 00:01:38;;;;;;;9.13;5.10;;;8.90;95.70;;;;;;5012352;28;20207;-69
2021/03/11 00:04:04;;;;;;;8.23;5.90;;;8.90;96.00;;;;;;5011896;28;20291;-67
2021/03/11 00:06:29;;;;;;;7.73;6.17;;;8.90;96.30;;;;;;5012028;28;20184;-69
2021/03/11 00:08:55;;;;;;;7.20;5.43;;;8.90;97.20;;;;;;5011930;28;20177;-70
2021/03/11 00:11:21;;;;;;;9.93;6.10;;;8.90;97.30;;;;;;5012133;28;20176;-70
2021/03/11 00:13:46;;;;;;;10.40;6.27;;;8.80;97.30;;;;;;5012244;28;20188;-68
2021/03/11 00:16:12;;;;;;;9.47;5.80;;;8.90;96.60;;;;;;5011351;28;20181;-69
2021/03/11 00:18:37;;;;;;;10.10;6.87;;;8.80;97.70;;;;;;5012045;28;20243;-67
2021/03/11 00:21:04;;;;;;;9.60;5.73;;;8.90;95.70;;;;;;4994095;28;20180;-67
2021/03/11 00:23:29;;;;;;;9.27;6.73;;;8.90;96.80;;;;;;4993827;28;20204;-67
2021/03/11 00:25:55;;;;;;;10.67;6.40;;;8.90;95.90;;;;;;5012007;28;20426;-68
2021/03/11 00:28:21;;;;;;;11.37;6.60;;;8.90;96.40;;;;;;5011754;28;20186;-68
2021/03/11 00:30:46;;;;;;;10.53;6.73;;;9.00;96.50;;;;;;5011748;28;20176;-68
2021/03/11 00:33:12;;;;;;;10.93;6.63;;;8.90;96.30;;;;;;5011787;28;20172;-67
2021/03/11 00:35:38;;;;;;;10.77;6.80;;;8.90;96.10;;;;;;5011820;28;20208;-68
2021/03/11 00:38:04;;;;;;;12.00;6.70;;;9.00;96.30;;;;;;5011585;28;20180;-68
2021/03/11 00:40:32;;;;;;;11.70;6.63;;;9.00;96.10;;;;;;5011657;28;20191;-68
2021/03/11 00:42:59;;;;;;;9.67;7.07;;;9.00;96.50;;;;;;4994384;28;20408;-70
2021/03/11 00:45:24;;;;;;;10.03;6.60;;;9.00;94.60;;;;;;5011426;28;20804;-68
2021/03/11 00:47:50;;;;;;;10.73;6.93;;;9.00;95.10;;;;;;5011645;28;20420;-69
2021/03/11 00:50:20;;;;;;;11.33;7.87;;;9.00;95.70;;;;;;5011857;28;20784;-68
2021/03/11 00:52:46;;;;;;;10.20;7.67;;;9.10;93.90;;;;;;5011480;28;20318;-69
2021/03/11 00:55:13;;;;;;;14.00;7.03;;;9.00;95.30;;;;;;5011683;28;20510;-68
2021/03/11 00:57:40;;;;;;;10.63;7.03;;;9.00;95.30;;;;;;5011498;28;20609;-68
2021/03/11 01:00:07;;;;;;;12.10;7.53;;;9.10;94.70;;;;;;5020711;28;20604;-69
2021/03/11 01:02:33;;;;;;;14.00;8.10;;;9.10;94.80;;;;;;5030983;28;20430;-68
2021/03/11 01:04:58;;;;;;;12.03;7.93;;;9.20;93.20;;;;;;5023632;28;20463;-67
2021/03/11 01:07:24;;;;;;;8.63;5.93;;;9.20;93.70;;;;;;4993876;28;20168;-69
2021/03/11 01:09:50;;;;;;;12.37;7.23;;;9.30;92.10;;;;;;5030530;28;20537;-68
2021/03/11 01:12:15;;;;;;;10.97;8.07;;;9.30;90.90;;;;;;5030267;28;20255;-68
2021/03/11 01:14:44;;;;;;;12.80;8.70;;;9.40;91.70;;;;;;5026196;28;20621;-68
2021/03/11 01:17:10;;;;;;;13.40;9.13;;;9.40;91.50;;;;;;5011404;28;20177;-67
2021/03/11 01:19:37;;;;;;;12.53;6.90;;;9.50;91.00;;;;;;4993374;28;20427;-67
2021/03/11 01:22:03;;;;;;;9.77;7.30;;;9.50;89.80;;;;;;5011239;28;20424;-68
2021/03/11 01:24:30;;;;;;;10.87;7.63;;;9.60;90.10;;;;;;5011235;28;21051;-67
2021/03/11 01:26:56;;;;;;;11.63;6.80;;;9.50;90.00;;;;;;5011168;28;20365;-69
2021/03/11 01:29:22;;;;;;;10.47;7.40;;;9.60;90.30;;;;;;5013944;28;20419;-67
2021/03/11 01:31:47;;;;;;;12.90;7.30;;;9.50;90.40;;;;;;5015044;28;20423;-68
2021/03/11 01:34:13;;;;;;;7.73;4.47;;;9.40;90.30;;;;;;5014711;28;20215;-68
2021/03/11 01:36:39;;;;;;;9.90;6.37;;;9.40;90.70;;;;;;5019875;28;20187;-68
2021/03/11 01:39:05;;;;;;;8.67;4.27;;;9.30;91.60;;;;;;5034511;28;20175;-69
2021/03/11 01:41:30;;;;;;;8.60;5.60;;;9.10;91.70;;;;;;5016518;28;20630;-68
2021/03/11 01:43:57;;;;;;;11.47;6.47;;;9.10;92.20;;;;;;5034259;28;20249;-67
2021/03/11 01:46:25;;;;;;;9.57;5.43;;;9.00;92.20;;;;;;5028710;28;20611;-68
2021/03/11 01:48:51;;;;;;;9.80;6.03;;;9.00;92.20;;;;;;5022389;28;20754;-66
2021/03/11 01:51:18;;;;;;;10.37;5.40;;;9.00;92.70;;;;;;5033787;28;20418;-68
2021/03/11 01:53:44;;;;;;;7.77;5.30;;;9.00;92.20;;;;;;5014633;28;20411;-68
2021/03/11 01:56:10;;;;;;;8.20;5.37;;;9.00;92.20;;;;;;5014397;28;20443;-67
2021/03/11 01:58:36;;;;;;;8.90;6.17;;;9.00;92.20;;;;;;5014556;28;20509;-68
2021/03/11 02:01:01;;;;;;;12.10;6.67;;;8.90;92.30;;;;;;5015063;28;20688;-68
2021/03/11 02:03:27;;;;;;;10.30;7.37;;;8.90;91.80;;;;;;5014248;28;20670;-67
2021/03/11 02:05:53;;;;;;;8.30;6.13;;;8.90;91.30;;;;;;5014465;28;20192;-68
2021/03/11 02:08:18;;;;;;;10.30;6.70;;;8.90;90.90;;;;;;5014262;28;20176;-67
2021/03/11 02:10:44;;;;;;;10.40;6.77;;;8.80;91.00;;;;;;5014470;28;20172;-69
2021/03/11 02:13:34;;;;;;;11.23;6.53;;;8.80;91.40;;;;;;5013994;28;20218;-69
2021/03/11 02:16:17;;;;;;;11.00;6.73;;;8.80;92.20;;;;;;5014111;28;20183;-68
2021/03/11 02:19:01;;;;;;;10.57;6.73;;;8.90;91.80;;;;;;5013724;28;20431;-67
2021/03/11 02:21:36;;;;;;;12.43;6.17;;;8.90;91.40;;;;;;4994994;28;20921;-68
2021/03/11 02:24:21;;;;;;;9.53;6.60;;;8.90;92.20;;;;;;5013980;28;20504;-68
2021/03/11 02:26:54;;;;;;;11.20;7.30;;;9.00;92.30;;;;;;5014047;28;20542;-68
2021/03/11 02:29:32;;;;;;;11.03;6.87;;;9.00;92.40;;;;;;5013675;28;20407;-69
2021/03/11 02:32:00;;;;;;;14.03;7.43;;;9.00;92.80;;;;;;5013794;28;20399;-67
2021/03/11 02:34:39;;;;;;;12.63;7.37;;;9.10;92.30;;;;;;5013707;28;20414;-67
2021/03/11 02:37:12;;;;;;;9.23;5.90;;;9.10;94.30;;;;;;5013893;28;20422;-68
2021/03/11 02:39:42;;;;;;;8.47;5.83;;;9.10;94.00;;;;;;5013017;28;20418;-69
2021/03/11 02:42:09;;;;;;;7.90;5.63;;;9.20;95.40;;;;;;5013538;28;20403;-68
2021/03/11 02:44:35;;;;;;;10.97;6.00;;;9.20;96.10;;;;;;5013285;28;20451;-67
2021/03/11 02:47:02;;;;;;;8.87;6.13;;;9.30;95.50;;;;;;5013461;28;20495;-67
2021/03/11 02:49:28;;;;;;;9.93;6.70;;;9.30;96.20;;;;;;5013672;28;20908;-68
2021/03/11 02:51:54;;;;;;;11.10;5.87;;;9.40;95.50;;;;;;5013289;28;20411;-67
2021/03/11 02:54:21;;;;;;;9.40;6.60;;;9.40;95.30;;;;;;5013597;28;20485;-69
2021/03/11 02:56:48;;;;;;;7.80;5.17;;;9.40;94.80;;;;;;5013422;28;20415;-69
2021/03/11 02:59:15;;;;;;;10.70;7.53;;;9.40;94.90;;;;;;5013877;28;20870;-68
2021/03/11 03:01:42;;;;;;;7.97;6.03;;;9.30;94.90;;;;;;5032520;28;20458;-68
2021/03/11 03:04:11;;;;;;;10.00;5.50;;;9.30;95.50;;;;;;5029251;28;20451;-67
2021/03/11 03:06:38;;;;;;;11.10;6.80;;;9.20;95.30;;;;;;5013395;28;20413;-69
2021/03/11 03:09:05;;;;;;;13.17;7.40;;;9.20;95.80;;;;;;5017228;28;20937;-69
2021/03/11 03:11:31;;;;;;;7.77;6.33;;;9.20;95.90;;;;;;4995414;28;20408;-69
2021/03/11 03:13:57;;;;;;;11.00;7.30;;;9.10;97.20;;;;;;5012960;28;20530;-67
2021/03/11 03:16:23;;;;;;;9.73;6.67;;;9.20;97.00;;;;;;5024786;28;20418;-67
2021/03/11 03:18:49;;;;;;;9.10;6.43;;;9.20;97.00;;;;;;5032920;28;20687;-68
2021/03/11 03:21:22;;;;;;;9.23;6.00;;;9.20;99.20;;;;;;5032616;28;20250;-68
2021/03/11 03:23:50;;;;;;;12.27;6.53;;;9.20;99.90;;;;;;5032682;28;20195;-68
2021/03/11 03:26:16;;;;;;;8.80;6.50;;;9.20;99.90;;;;;;5032587;28;20419;-69
2021/03/11 03:28:43;;;;;;;8.47;5.97;;;9.30;99.90;;;;;;5024971;28;20431;-69
2021/03/11 03:31:10;;;;;;;10.13;6.13;;;9.20;99.90;;;;;;5012529;28;20466;-68
2021/03/11 03:33:36;;;;;;;7.97;5.80;;;9.20;99.90;;;;;;5015107;28;20446;-67
2021/03/11 03:36:01;;;;;;;8.93;5.73;;;9.20;99.90;;;;;;5030586;28;20508;-68
2021/03/11 03:38:27;;;;;;;7.93;5.17;;;9.20;99.90;;;;;;5012688;28;20536;-69
2021/03/11 03:40:53;;;;;;;10.20;6.47;;;9.20;99.90;;;;;;5012724;28;20196;-69
2021/03/11 03:43:24;;;;;;;7.97;4.57;;;9.20;99.90;;;;;;4994933;28;20187;-68
2021/03/11 03:46:05;;;;;;;9.23;6.10;;;9.20;99.90;;;;;;5022608;28;20175;-67
2021/03/11 03:48:40;;;;;;;8.87;5.70;;;9.30;99.90;;;;;;5032292;28;21000;-68
2021/03/11 03:51:07;;;;;;;9.30;6.03;;;9.20;99.90;;;;;;5026432;28;20490;-68
2021/03/11 03:53:43;;;;;;;8.17;5.83;;;9.20;99.90;;;;;;5012151;28;20897;-69
2021/03/11 03:56:17;;;;;;;10.77;6.13;;;9.20;99.90;;;;;;5021917;28;20419;-67
2021/03/11 03:58:46;;;;;;;10.20;5.77;;;9.20;99.90;;;;;;5030192;28;20425;-69
2021/03/11 04:01:20;;;;;;;15.27;6.20;;;9.20;99.90;;;;;;5032351;28;20880;-68
2021/03/11 04:03:49;;;;;;;7.00;5.53;;;9.20;99.90;;;;;;5028542;28;20532;-68
2021/03/11 04:06:15;;;;;;;13.37;7.23;;;9.30;99.90;;;;;;5015947;28;21006;-68
2021/03/11 04:08:44;;;;;;;8.03;5.23;;;9.20;99.90;;;;;;5011905;28;20427;-68
2021/03/11 04:11:10;;;;;;;7.53;5.87;;;9.20;99.90;;;;;;5030778;28;20810;-67
2021/03/11 04:13:36;;;;;;;6.83;4.80;;;9.20;99.90;;;;;;5017459;28;20420;-68
2021/03/11 04:16:02;;;;;;;8.07;5.60;;;9.20;99.90;;;;;;5030727;28;20168;-66
2021/03/11 04:18:28;;;;;;;7.03;5.13;;;9.20;99.90;;;;;;5015999;28;20967;-69
2021/03/11 04:20:55;;;;;;;11.27;5.77;;;9.30;99.90;;;;;;5016171;28;20418;-69
2021/03/11 04:23:21;;;;;;;9.80;5.30;;;9.30;99.90;;;;;;5031221;28;20193;-67
2021/03/11 04:25:48;;;;;;;9.33;5.10;;;9.40;99.90;;;;;;5022295;28;20458;-68
2021/03/11 04:28:13;;;;;;;6.20;4.20;;;9.40;99.90;;;;;;5017240;28;20423;-68
2021/03/11 04:30:40;;;;;;;8.67;5.33;;;9.30;99.90;;;;;;5031424;28;20923;-69
2021/03/11 04:33:06;;;;;;;7.43;4.97;;;9.40;99.90;;;;;;5013697;28;20595;-66
2021/03/11 04:35:32;;;;;;;7.23;4.77;;;9.40;99.90;;;;;;5031393;28;20415;-69
2021/03/11 04:37:58;;;;;;;7.97;4.77;;;9.40;99.90;;;;;;5025736;28;20968;-67
2021/03/11 04:40:24;;;;;;;7.07;4.73;;;9.40;99.90;;;;;;5011823;28;20208;-69
2021/03/11 04:42:51;;;;;;;6.63;4.43;;;9.40;99.90;;;;;;5011483;28;20443;-68
2021/03/11 04:45:17;;;;;;;7.80;4.63;;;9.50;99.90;;;;;;5011518;28;20208;-68
2021/03/11 04:47:43;;;;;;;9.33;5.13;;;9.50;99.90;;;;;;5016519;28;20419;-68
2021/03/11 04:50:09;;;;;;;6.20;4.30;;;9.50;99.90;;;;;;5014140;28;20179;-69
2021/03/11 04:52:36;;;;;;;6.67;4.20;;;9.60;99.90;;;;;;5030377;28;20179;-67
2021/03/11 04:55:04;;;;;;;7.77;4.10;;;9.60;99.90;;;;;;5018401;28;20447;-69
2021/03/11 04:57:30;;;;;;;4.73;3.90;;;9.50;99.90;;;;;;5027727;28;20758;-69
2021/03/11 05:00:04;;;;;;;6.30;3.97;;;9.70;99.90;;;;;;5027838;28;20552;-68
2021/03/11 05:02:33;;;;;;;6.90;4.43;;;9.70;99.90;;;;;;5013207;28;20502;-68
2021/03/11 05:05:02;;;;;;;7.73;4.20;;;9.60;99.90;;;;;;4993184;28;20466;-68
2021/03/11 05:07:27;;;;;;;6.33;3.33;;;9.60;99.90;;;;;;5012727;28;20476;-68
2021/03/11 05:09:53;;;;;;;4.83;3.33;;;9.60;99.90;;;;;;5015600;28;20469;-68
2021/03/11 05:12:18;;;;;;;6.07;4.47;;;9.50;99.90;;;;;;5015000;28;20262;-68
2021/03/11 05:14:44;;;;;;;5.70;4.13;;;9.60;99.90;;;;;;5015020;28;20176;-68
2021/03/11 05:17:09;;;;;;;4.13;2.87;;;9.60;99.90;;;;;;5015041;28;20185;-68
2021/03/11 05:19:35;;;;;;;6.87;4.57;;;9.50;99.90;;;;;;5015154;28;20188;-68
2021/03/11 05:22:01;;;;;;;5.83;3.60;;;9.60;99.90;;;;;;5015282;28;20267;-68
2021/03/11 05:24:26;;;;;;;4.43;2.30;;;9.60;99.90;;;;;;5015053;28;20204;-68
2021/03/11 05:26:52;;;;;;;6.87;4.03;;;8.60;99.90;;;;;;5015032;28;20310;-69
2021/03/11 05:29:17;;;;;;;10.10;3.83;;;9.60;99.90;;;;;;5014702;28;20198;-68
2021/03/11 05:31:43;;;;;;;5.17;3.40;;;8.50;99.90;;;;;;5014627;28;20176;-67
2021/03/11 05:34:09;;;;;;;6.53;3.63;;;9.50;99.90;;;;;;5014754;28;20265;-67
2021/03/11 05:36:34;;;;;;;6.77;3.87;;;9.50;99.90;;;;;;5014768;28;20255;-68
2021/03/11 05:39:03;;;;;;;6.13;4.33;;;9.50;99.90;;;;;;5014557;28;20177;-68
2021/03/11 05:41:31;;;;;;;5.77;3.80;;;9.40;99.90;;;;;;5014774;28;20195;-69
2021/03/11 05:43:58;;;;;;;3.87;2.20;;;9.50;99.90;;;;;;5014692;28;20462;-68
2021/03/11 05:46:24;;;;;;;5.93;3.80;;;9.40;99.90;;;;;;5014321;28;20411;-68
2021/03/11 05:48:50;;;;;;;8.27;3.47;;;9.40;99.90;;;;;;5014338;28;20730;-68
2021/03/11 05:51:17;;;;;;;6.63;3.87;;;9.40;99.90;;;;;;5014703;28;20921;-68
2021/03/11 05:53:43;;;;;;;6.73;3.47;;;9.40;99.90;;;;;;5014060;28;20450;-68
2021/03/11 05:56:09;;;;;;;4.93;3.53;;;9.40;99.90;;;;;;5014401;28;20408;-66
2021/03/11 05:58:35;;;;;;;4.13;2.90;;;9.40;99.90;;;;;;5014447;28;20176;-68
2021/03/11 06:01:08;;;;;;;5.83;3.23;;;9.40;99.90;;;;;;5015808;28;21030;-68
2021/03/11 06:03:34;;;;;;;4.83;2.80;;;9.60;99.90;;;;;;5014237;28;20196;-66
2021/03/11 06:06:00;;;;;;;5.23;3.37;;;9.60;99.90;;;;;;5014299;28;20415;-68
2021/03/11 06:08:27;;;;;;;4.47;3.20;;;9.60;99.90;;;;;;5014237;28;20412;-67
2021/03/11 06:10:55;;;;;;;4.63;2.93;;;9.70;99.90;;;;;;4996650;28;20769;-68
2021/03/11 06:13:25;;;;;;;5.53;2.90;;;9.70;99.90;;;;;;5013327;28;20908;-69
2021/03/11 06:15:59;;;;;;;3.67;2.50;;;9.80;99.90;;;;;;4995951;28;20458;-69
2021/03/11 06:18:25;;;;;;;5.50;2.93;;;9.70;99.90;;;;;;5014063;28;20501;-68
2021/03/11 06:20:51;;;;;;;5.70;3.70;;;9.80;99.90;;;;;;5013944;28;20412;-68
2021/03/11 06:23:17;;;;;;;6.60;4.03;;;9.70;99.90;;;;;;5013918;28;20426;-69
2021/03/11 06:25:42;;;;;;;5.97;3.57;;;9.70;99.90;;;;;;5013824;28;20175;-68
2021/03/11 06:28:08;;;;;;;4.10;2.83;;;9.60;99.90;;;;;;5013763;28;20182;-68
2021/03/11 06:30:41;;;;;;;3.40;2.83;;;9.60;99.90;;;;;;5013396;28;20180;-68
2021/03/11 06:33:07;;;;;;;5.37;3.13;;;9.60;99.90;;;;;;5013715;28;20532;-68
2021/03/11 06:35:38;;;;;;;4.50;2.90;;;9.60;99.90;;;;;;5013689;28;20415;-68
2021/03/11 06:38:03;;;;;;;6.07;4.33;;;9.50;99.90;;;;;;5013639;28;20969;-67
2021/03/11 06:40:30;;;;;;;5.90;3.83;;;9.50;99.90;;;;;;5013595;28;20411;-69
2021/03/11 06:43:13;;;;;;;5.03;3.20;;;9.40;99.90;;;;;;5013386;28;20180;-67
2021/03/11 06:45:39;;;;;;;5.37;4.00;;;9.50;99.90;;;;;;5012363;28;20422;-68
2021/03/11 06:48:26;;;;;;;6.03;2.97;;;9.50;99.90;;;;;;5013121;28;20180;-68
2021/03/11 06:51:03;;;;;;;4.73;3.07;;;9.60;99.90;;;;;;5012599;28;20411;-68
2021/03/11 06:53:29;;;;;;;5.50;4.10;;;9.60;99.90;;;;;;5012758;28;20417;-67
2021/03/11 06:56:18;;;;;;;8.10;4.10;;;9.60;99.90;;;;;;5013173;28;20538;-69
2021/03/11 06:59:04;;;;;;;4.10;3.17;;;9.60;99.90;;;;;;5013124;28;20411;-68
2021/03/11 07:01:31;;;;;;;4.87;3.53;;;9.70;99.90;;;;;;4999807;28;20459;-69
2021/03/11 07:04:03;;;;;;;7.57;3.80;;;9.80;99.90;;;;;;4993535;28;20921;-69
2021/03/11 07:06:38;;;;;;;7.70;3.50;;;9.80;99.90;;;;;;4993407;28;20419;-67
2021/03/11 07:09:06;;;;;;;7.60;3.70;;;9.80;99.90;;;;;;4991990;28;20419;-67
2021/03/11 07:11:33;;;;;;;2.70;2.43;;;9.80;99.90;;;;;;4992428;28;20423;-69
2021/03/11 07:14:01;;;;;;;3.90;2.80;;;9.80;99.90;;;;;;4993968;28;20922;-68
2021/03/11 07:16:28;;;;;;;6.33;3.83;;;9.90;99.90;;;;;;5012423;28;20430;-68
2021/03/11 07:19:16;;;;;;;4.73;3.10;;;9.90;99.90;;;;;;5012213;28;20470;-68
2021/03/11 07:21:46;;;;;;;4.83;3.37;;;10.00;99.90;;;;;;5012298;28;20419;-68
2021/03/11 07:24:30;;;;;;;4.20;2.60;;;10.00;99.90;;;;;;5012143;28;20459;-68
2021/03/11 07:26:59;;;;;;;4.33;3.17;;;10.00;99.90;;;;;;5012216;28;20421;-68
2021/03/11 07:29:25;;;;;;;7.23;3.60;;;10.10;99.90;;;;;;5012023;28;20443;-69
2021/03/11 07:31:59;;;;;;;3.63;3.03;;;10.10;99.90;;;;;;5011974;28;20454;-68
2021/03/11 07:34:29;;;;;;;6.03;3.30;;;10.10;99.90;;;;;;5011708;28;20173;-68
2021/03/11 07:36:58;;;;;;;6.13;4.07;;;10.10;99.90;;;;;;5011806;28;20589;-68
2021/03/11 07:39:26;;;;;;;6.50;3.17;;;10.00;99.90;;;;;;5011702;28;20420;-69
2021/03/11 07:41:53;;;;;;;5.30;3.10;;;10.10;99.90;;;;;;5011614;28;20443;-68
2021/03/11 07:44:19;;;;;;;4.63;4.00;;;10.10;99.90;;;;;;5011521;28;20470;-68
2021/03/11 07:46:45;;;;;;;3.73;2.50;;;10.10;99.90;;;;;;5002903;28;20513;-69
2021/03/11 07:49:13;;;;;;;5.00;2.93;;;10.10;99.90;;;;;;4992172;28;20177;-68
2021/03/11 07:51:38;;;;;;;5.37;3.30;;;10.10;99.90;;;;;;4974286;28;20184;-69
2021/03/11 07:54:05;;;;;;;3.77;2.43;;;10.10;99.90;;;;;;4992156;28;20181;-68
2021/03/11 07:56:31;;;;;;;4.80;3.20;;;10.20;99.90;;;;;;4992070;28;20601;-68
2021/03/11 07:59:03;;;;;;;5.47;3.43;;;10.20;99.90;;;;;;4991967;28;20216;-69
2021/03/11 08:01:33;;;;;;;5.50;3.57;;;10.30;99.90;;;;;;5010003;28;20773;-69
2021/03/11 08:04:00;;;;;;;5.30;3.60;;;10.30;99.90;;;;;;5011299;28;20558;-68
2021/03/11 08:06:26;;;;;;;5.60;3.57;;;10.30;99.90;;;;;;5011212;28;20610;-68
2021/03/11 08:08:53;;;;;;;4.17;3.23;;;10.30;99.90;;;;;;5011107;28;20180;-67
2021/03/11 08:11:32;;;;;;;6.57;3.33;;;10.30;99.90;;;;;;5030549;28;20171;-70
2021/03/11 08:14:19;;;;;;;5.57;3.40;;;10.30;99.90;;;;;;5031093;28;20175;-67
2021/03/11 08:16:45;;;;;;;5.30;3.07;;;10.30;99.90;;;;;;5030827;28;20198;-70
2021/03/11 08:19:36;;;;;;;5.33;3.00;;;10.40;99.90;;;;;;5030723;28;20523;-69
2021/03/11 08:22:03;;;;;;;4.37;2.67;;;10.40;99.90;;;;;;5030844;28;20267;-68
2021/03/11 08:24:42;;;;;;;12.20;3.13;;;10.50;99.90;;;;;;5030427;28;20454;-68
2021/03/11 08:27:29;;;;;;;4.73;3.50;;;10.50;99.90;;;;;;5030001;28;20175;-68
2021/03/11 08:29:56;;;;;;;3.67;2.77;;;10.80;99.90;;;;;;5030047;28;20176;-69
2021/03/11 08:32:47;;;;;;;5.30;2.80;;;10.60;99.90;;;;;;5030595;28;20682;-68
2021/03/11 08:35:28;;;;;;;4.00;3.10;;;10.60;99.90;;;;;;5030351;28;20179;-68
2021/03/11 08:38:00;;;;;;;2.23;2.03;;;11.40;99.90;;;;;;5029911;28;20175;-68
2021/03/11 08:40:44;;;;;;;4.20;2.73;;;10.70;99.90;;;;;;5022642;28;20689;-69
2021/03/11 08:43:10;;;;;;;3.87;2.73;;;10.70;99.90;;;;;;5010967;28;20225;-67
2021/03/11 08:45:36;;;;;;;3.00;2.67;;;10.80;99.90;;;;;;5009789;28;20289;-69
2021/03/11 08:48:12;;;;;;;4.80;2.70;;;10.80;99.90;;;;;;5014384;28;20179;-68
2021/03/11 08:50:38;;;;;;;4.73;2.70;;;10.90;99.90;;;;;;5030690;28;20178;-68
2021/03/11 08:53:04;;;;;;;3.73;3.00;;;10.90;99.90;;;;;;5026569;28;20164;-67
2021/03/11 08:55:32;;;;;;;5.57;2.50;;;10.90;99.90;;;;;;5029133;28;20633;-68
2021/03/11 08:57:58;;;;;;;2.67;2.43;;;10.90;99.90;;;;;;5030512;28;20179;-68
2021/03/11 09:00:52;;;;;;;4.70;2.90;;;10.90;99.90;;;;;;5030671;28;20210;-68
2021/03/11 09:03:37;;;;;;;4.03;2.60;;;10.90;99.90;;;;;;5030282;28;20183;-69
2021/03/11 09:06:04;;;;;;;2.93;2.50;;;10.90;99.90;;;;;;5030401;28;21167;-68
2021/03/11 09:08:30;;;;;;;3.20;2.27;;;10.80;99.90;;;;;;5030498;28;20168;-68
2021/03/11 09:11:09;;;;;;;3.20;2.60;;;10.70;99.90;;;;;;5030252;28;20179;-71
2021/03/11 09:13:35;;;;;;;3.43;2.80;;;10.60;99.90;;;;;;5030367;28;20568;-68
2021/03/11 09:16:01;;;;;;;3.57;2.27;;;10.50;99.90;;;;;;5030157;28;20209;-69
2021/03/11 09:18:28;;;;;;;4.40;2.73;;;10.30;99.90;;;;;;5030256;28;20176;-68
2021/03/11 09:20:54;;;;;;;6.33;2.43;;;10.20;99.90;;;;;;5029916;28;20286;-67
2021/03/11 09:23:31;;;;;;;2.80;2.33;;;10.10;99.90;;;;;;5029675;28;20493;-68
2021/03/11 09:25:56;;;;;;;4.10;2.37;;;10.00;99.90;;;;;;5030017;28;20530;-69
2021/03/11 09:28:22;;;;;;;3.73;2.53;;;9.90;99.90;;;;;;5030074;28;20410;-68
2021/03/11 09:30:48;;;;;;;6.43;3.67;;;9.90;99.90;;;;;;5030273;28;20183;-68
2021/03/11 09:33:20;;;;;;;4.30;3.30;;;9.80;99.90;;;;;;5030306;28;20172;-68
2021/03/11 09:35:46;;;;;;;5.43;3.83;;;9.80;99.90;;;;;;5029724;28;20168;-69
2021/03/11 09:38:31;;;;;;;5.33;3.47;;;9.80;99.90;;;;;;5012034;28;20422;-68
2021/03/11 09:40:58;;;;;;;6.70;3.13;;;9.80;99.90;;;;;;5010301;28;20258;-69
2021/03/11 09:43:28;;;;;;;4.30;3.20;;;9.80;99.90;;;;;;5010154;28;20419;-67
2021/03/11 09:46:00;;;;;;;3.80;3.07;;;9.80;99.90;;;;;;5010334;28;20487;-69
2021/03/11 09:48:34;;;;;;;4.00;3.40;;;9.80;99.90;;;;;;5010250;28;20416;-67
2021/03/11 09:51:01;;;;;;;4.40;3.70;;;9.80;99.90;;;;;;5025952;28;20810;-69
2021/03/11 09:53:43;;;;;;;3.23;2.50;;;9.80;99.90;;;;;;5033956;28;20407;-67
2021/03/11 09:56:12;;;;;;;5.13;3.50;;;9.80;99.90;;;;;;4995184;28;20478;-69
2021/03/11 09:59:04;;;;;;;4.73;3.60;;;9.70;99.90;;;;;;5028519;28;20415;-69
2021/03/11 10:01:31;;;;;;;5.43;3.50;;;9.70;99.90;;;;;;5012517;28;22862;-70
2021/03/11 10:03:57;;;;;;;3.77;3.07;;;9.70;99.90;;;;;;5013666;28;20447;-68
2021/03/11 10:06:24;;;;;;;4.17;3.20;;;9.70;99.90;;;;;;4996226;28;20459;-69
2021/03/11 10:08:57;;;;;;;4.53;3.03;;;9.70;99.90;;;;;;5013515;28;20415;-69
2021/03/11 10:11:33;;;;;;;6.03;3.53;;;9.70;99.90;;;;;;5013725;28;20415;-69
2021/03/11 10:14:03;;;;;;;5.37;3.63;;;9.70;99.90;;;;;;5013502;28;20408;-68
2021/03/11 10:16:31;;;;;;;8.43;2.77;;;9.70;99.90;;;;;;5013690;28;20415;-68
2021/03/11 10:19:20;;;;;;;11.50;4.40;;;9.70;99.90;;;;;;5013278;28;20418;-69
2021/03/11 10:22:22;;;;;;;8.30;2.83;;;9.70;99.90;;;;;;5013259;28;20478;-67
2021/03/11 10:24:50;;;;;;;3.77;2.50;;;9.70;99.90;;;;;;4997089;28;20462;-67
2021/03/11 10:27:16;;;;;;;3.13;1.93;;;9.80;99.90;;;;;;5013340;28;20411;-67
2021/03/11 10:29:42;;;;;;;5.47;1.97;;;9.80;99.90;;;;;;5013377;28;20929;-68
2021/03/11 10:32:08;;;;;;;3.83;2.57;;;9.90;99.90;;;;;;5013139;28;20584;-67
2021/03/11 10:34:47;;;;;;;2.63;2.07;;;10.00;99.90;;;;;;5013163;28;20989;-68
2021/03/11 10:37:27;;;;;;;5.03;3.10;;;10.00;99.90;;;;;;5013150;28;20214;-67
2021/03/11 10:39:58;;;;;;;4.50;3.00;;;10.00;99.90;;;;;;5013179;28;20874;-66
2021/03/11 10:42:25;;;;;;;2.87;1.77;;;10.10;99.90;;;;;;5012970;28;20427;-68
2021/03/11 10:45:01;;;;;;;4.00;2.43;;;10.10;99.90;;;;;;5012924;28;20458;-68
2021/03/11 10:47:27;;;;;;;3.47;2.07;;;10.10;99.90;;;;;;5012706;28;20465;-68
2021/03/11 10:49:53;;;;;;;2.73;2.30;;;10.10;99.90;;;;;;5012679;28;20466;-66
2021/03/11 10:52:19;;;;;;;3.73;2.43;;;10.10;99.90;;;;;;5012523;28;20503;-69
2021/03/11 10:54:45;;;;;;;2.97;1.83;;;10.10;99.90;;;;;;5012835;28;20443;-69
2021/03/11 10:57:17;;;;;;;2.77;2.40;;;10.10;99.90;;;;;;5012602;28;20187;-68
2021/03/11 10:59:50;;;;;;;3.07;2.30;;;10.10;99.90;;;;;;5012551;28;20426;-68
2021/03/11 11:02:16;;;;;;;3.40;2.07;;;10.10;99.90;;;;;;5012521;28;20459;-68
2021/03/11 11:04:42;;;;;;;2.33;1.80;;;10.20;99.90;;;;;;5011497;28;20459;-67
2021/03/11 11:07:08;;;;;;;5.07;2.10;;;10.20;99.90;;;;;;5012635;28;20442;-67
2021/03/11 11:09:34;;;;;;;3.47;2.17;;;10.20;99.90;;;;;;5012485;28;20179;-67
2021/03/11 11:12:00;;;;;;;4.20;2.03;;;10.30;99.90;;;;;;5012556;28;20184;-68
2021/03/11 11:14:25;;;;;;;1.30;1.10;;;10.30;99.90;;;;;;5012184;28;20776;-69
2021/03/11 11:16:51;;;;;;;4.00;2.73;;;10.40;99.90;;;;;;5012060;28;20187;-66
2021/03/11 11:19:17;;;;;;;2.00;1.53;;;10.40;99.90;;;;;;5012165;28;20614;-67
2021/03/11 11:21:42;;;;;;;5.23;2.30;;;10.60;99.90;;;;;;5012445;28;20180;-68
2021/03/11 11:24:08;;;;;;;4.17;2.10;;;10.60;99.90;;;;;;5011690;28;20202;-67
2021/03/11 11:26:34;;;;;;;2.23;1.90;;;10.70;99.90;;;;;;5011897;28;20192;-68
2021/03/11 11:29:04;;;;;;;7.17;3.43;;;10.70;99.90;;;;;;4994137;28;20431;-69
2021/03/11 11:31:30;;;;;;;2.87;2.30;;;10.70;99.90;;;;;;5011679;28;20590;-68
2021/03/11 11:33:56;;;;;;;3.80;2.20;;;10.80;99.90;;;;;;5011928;28;20546;-67
2021/03/11 11:36:21;;;;;;;3.40;1.83;;;10.90;99.90;;;;;;5011478;28;20202;-68
2021/03/11 11:38:48;;;;;;;2.43;1.80;;;10.90;99.90;;;;;;5011579;28;20184;-68
2021/03/11 11:41:18;;;;;;;4.23;2.20;;;10.90;99.90;;;;;;5011785;28;20188;-68
2021/03/11 11:43:44;;;;;;;1.60;1.50;;;10.90;99.90;;;;;;5011876;28;20239;-68
2021/03/11 11:46:10;;;;;;;1.80;1.40;;;11.10;99.90;;;;;;5011673;28;20176;-69
2021/03/11 11:48:36;;;;;;;2.37;1.20;;;11.20;99.90;;;;;;5011468;28;20173;-68
2021/03/11 11:51:02;;;;;;;2.67;1.33;;;11.40;99.90;;;;;;5011363;28;20183;-68
2021/03/11 11:53:27;;;;;;;2.03;1.43;;;11.30;99.90;;;;;;5011145;28;20630;-67
2021/03/11 11:55:54;;;;;;;2.13;1.50;;;11.40;99.90;;;;;;5011332;28;20239;-68
2021/03/11 11:58:19;;;;;;;3.50;1.83;;;11.50;99.90;;;;;;4993258;28;20177;-68
2021/03/11 12:00:46;;;;;;;1.33;1.20;;;11.70;99.90;;;;;;5011561;28;20220;-67
2021/03/11 12:03:12;;;;;;;1.40;0.80;;;11.90;99.90;;;;;;5011260;28;20235;-68
2021/03/11 12:05:38;;;;;;;2.80;1.30;;;12.10;99.90;;;;;;5011251;28;20208;-68
2021/03/11 12:08:03;;;;;;;2.63;1.40;;;12.20;99.90;;;;;;4993534;28;20194;-68
2021/03/11 12:10:30;;;;;;;1.77;1.33;;;12.30;99.90;;;;;;5011276;28;20534;-67
2021/03/11 12:12:55;;;;;;;1.50;1.27;;;12.40;99.90;;;;;;5010308;28;20172;-67
2021/03/11 12:15:21;;;;;;;0.90;0.90;;;12.50;99.90;;;;;;5011028;28;20180;-67
2021/03/11 12:17:47;;;;;;;3.33;0.97;;;12.60;99.90;;;;;;5011183;28;20216;-68
2021/03/11 12:20:13;;;;;;;5.17;1.03;;;12.70;99.90;;;;;;5011165;28;20226;-69
2021/03/11 12:22:38;;;;;;;2.23;1.27;;;12.80;99.90;;;;;;5010807;28;20188;-67
2021/03/11 12:25:05;;;;;;;2.30;1.30;;;12.70;99.90;;;;;;5010979;28;20211;-68
2021/03/11 12:27:30;;;;;;;3.60;1.30;;;12.70;99.90;;;;;;5011031;28;20202;-68
2021/03/11 12:29:56;;;;;;;3.57;1.47;;;12.60;99.90;;;;;;5010854;28;20255;-68
2021/03/11 12:32:22;;;;;;;5.90;1.63;;;12.20;99.90;;;;;;5011008;28;20172;-68
2021/03/11 12:34:48;;;;;;;1.73;1.10;;;12.00;99.90;;;;;;5011022;28;20246;-68
2021/03/11 12:37:14;;;;;;;3.00;1.20;;;11.80;99.90;;;;;;5011005;28;20188;-68
2021/03/11 12:39:40;;;;;;;2.30;0.80;;;11.70;99.90;;;;;;5010920;28;20168;-68
2021/03/11 12:42:06;;;;;;;3.90;1.00;;;11.60;99.90;;;;;;5011003;28;20172;-69
2021/03/11 12:44:33;;;;;;;5.37;1.57;;;11.60;99.90;;;;;;5010580;28;20287;-68
2021/03/11 12:46:58;;;;;;;1.50;1.30;;;11.60;99.90;;;;;;5010929;28;20172;-67
2021/03/11 12:49:24;;;;;;;2.03;1.10;;;11.70;99.90;;;;;;5011071;28;20329;-68
2021/03/11 12:51:50;;;;;;;3.53;1.17;;;11.70;99.90;;;;;;5011031;28;20180;-68
2021/03/11 12:54:15;;;;;;;3.07;1.33;;;11.80;99.90;;;;;;5010645;28;20229;-69
2021/03/11 12:56:41;;;;;;;1.67;1.30;;;11.90;99.90;;;;;;5010992;28;20257;-69
2021/03/11 12:59:06;;;;;;;2.70;1.70;;;12.00;99.90;;;;;;5010694;28;20270;-67